createdAt,value
2022-12-14T00:02:01.425Z,14.93
2022-12-14T00:04:29.968Z,12.90
2022-12-14T00:06:58.241Z,13.70
2022-12-14T00:09:26.541Z,13.55
2022-12-14T00:11:54.852Z,12.57
2022-12-14T00:14:23.300Z,13.85
2022-12-14T00:16:51.857Z,11.57
2022-12-14T00:19:21.512Z,11.88
2022-12-14T00:21:49.773Z,12.48
2022-12-14T00:24:17.975Z,12.93
2022-12-14T00:26:46.396Z,13.30
2022-12-14T00:29:14.632Z,13.10
2022-12-14T00:31:42.945Z,13.55
2022-12-14T00:34:11.290Z,12.75
2022-12-14T00:36:40.882Z,13.00
2022-12-14T00:39:09.141Z,13.00
2022-12-14T00:41:37.901Z,14.00
2022-12-14T00:44:06.604Z,14.23
2022-12-14T00:46:34.965Z,13.38
2022-12-14T00:49:03.360Z,12.98
2022-12-14T00:51:31.663Z,12.70
2022-12-14T00:54:01.307Z,14.30
2022-12-14T00:56:29.571Z,14.27
2022-12-14T00:58:57.857Z,13.63
2022-12-14T01:01:26.223Z,14.90
2022-12-14T01:04:15.512Z,13.82
2022-12-14T01:06:44.021Z,12.48
2022-12-14T01:09:13.674Z,14.10
2022-12-14T01:11:42.198Z,13.38
2022-12-14T01:14:10.518Z,13.70
2022-12-14T01:16:38.804Z,12.18
2022-12-14T01:19:07.253Z,11.90
2022-12-14T01:21:35.788Z,12.35
2022-12-14T01:24:04.820Z,12.77
2022-12-14T01:26:38.679Z,12.35
2022-12-14T01:29:07.335Z,12.52
2022-12-14T01:31:37.100Z,13.13
2022-12-14T01:34:05.540Z,11.50
2022-12-14T01:36:35.074Z,12.30
2022-12-14T01:39:05.447Z,9.82
2022-12-14T01:41:37.516Z,10.52
2022-12-14T01:44:54.579Z,12.82
2022-12-14T01:47:35.739Z,10.43
2022-12-14T01:50:09.777Z,13.18
2022-12-14T01:52:40.970Z,14.52
2022-12-14T01:55:12.401Z,15.13
2022-12-14T01:57:44.189Z,11.93
2022-12-14T02:00:14.233Z,11.52
2022-12-14T02:02:45.533Z,11.55
2022-12-14T02:05:13.816Z,13.15
2022-12-14T02:07:42.208Z,12.68
2022-12-14T02:10:11.019Z,12.25
2022-12-14T02:12:44.050Z,14.10
2022-12-14T02:15:12.908Z,11.65
2022-12-14T02:17:42.522Z,13.13
2022-12-14T02:20:11.977Z,12.88
2022-12-14T02:23:21.287Z,12.63
2022-12-14T02:26:41.609Z,10.68
2022-12-14T02:29:36.131Z,10.55
2022-12-14T02:32:24.093Z,11.77
2022-12-14T02:34:58.903Z,12.10
2022-12-14T02:37:32.570Z,10.55
2022-12-14T02:40:10.436Z,12.48
2022-12-14T02:42:43.889Z,11.27
2022-12-14T02:45:18.098Z,11.98
2022-12-14T02:47:51.215Z,10.70
2022-12-14T02:50:24.342Z,10.25
2022-12-14T02:52:58.364Z,11.60
2022-12-14T02:55:31.479Z,11.95
2022-12-14T02:58:01.772Z,9.95
2022-12-14T03:00:33.603Z,10.88
2022-12-14T03:03:02.323Z,11.00
2022-12-14T03:05:30.860Z,12.25
2022-12-14T03:07:59.941Z,12.05
2022-12-14T03:10:36.350Z,10.50
2022-12-14T03:13:11.601Z,11.70
2022-12-14T03:15:42.769Z,10.32
2022-12-14T03:18:11.299Z,11.05
2022-12-14T03:20:39.620Z,12.35
2022-12-14T03:23:10.301Z,12.35
2022-12-14T03:25:43.203Z,12.85
2022-12-14T03:28:15.474Z,10.98
2022-12-14T03:31:01.521Z,11.05
2022-12-14T03:33:30.619Z,11.55
2022-12-14T03:36:02.082Z,11.88
2022-12-14T03:38:35.312Z,11.65
2022-12-14T03:41:14.250Z,11.93
2022-12-14T03:43:51.138Z,11.60
2022-12-14T03:46:25.063Z,11.15
2022-12-14T03:48:55.138Z,11.73
2022-12-14T03:51:26.164Z,11.20
2022-12-14T03:54:01.679Z,11.25
2022-12-14T03:56:35.482Z,12.07
2022-12-14T03:59:07.517Z,10.73
2022-12-14T04:01:42.658Z,13.15
2022-12-14T04:04:13.151Z,10.30
2022-12-14T04:06:44.717Z,12.05
2022-12-14T04:09:24.463Z,12.63
2022-12-14T04:12:13.431Z,11.30
2022-12-14T04:15:02.885Z,11.07
2022-12-14T04:17:52.817Z,11.55
2022-12-14T04:20:23.429Z,9.45
2022-12-14T04:22:55.494Z,11.57
2022-12-14T04:25:44.253Z,10.65
2022-12-14T04:28:34.545Z,12.15
2022-12-14T04:31:03.999Z,12.38
2022-12-14T04:33:48.623Z,11.10
2022-12-14T04:36:20.447Z,12.30
2022-12-14T04:38:49.063Z,12.25
2022-12-14T04:41:19.333Z,13.20
2022-12-14T04:43:49.027Z,11.93
2022-12-14T04:46:18.946Z,11.02
2022-12-14T04:48:52.012Z,11.55
2022-12-14T04:51:25.858Z,11.73
2022-12-14T04:53:56.844Z,10.38
2022-12-14T04:56:27.773Z,10.60
2022-12-14T04:58:56.488Z,10.32
2022-12-14T05:01:34.568Z,9.90
2022-12-14T05:04:12.488Z,10.57
2022-12-14T05:06:44.942Z,11.75
2022-12-14T05:09:18.173Z,10.00
2022-12-14T05:11:53.606Z,11.00
2022-12-14T05:14:28.816Z,9.93
2022-12-14T05:16:57.184Z,11.25
2022-12-14T05:19:26.887Z,11.18
2022-12-14T05:21:56.444Z,10.77
2022-12-14T05:24:24.730Z,11.40
2022-12-14T05:26:52.962Z,12.38
2022-12-14T05:29:21.253Z,12.15
2022-12-14T05:31:49.690Z,11.75
2022-12-14T05:34:18.580Z,11.65
2022-12-14T05:36:48.196Z,10.93
2022-12-14T05:39:16.604Z,10.57
2022-12-14T05:41:44.861Z,11.73
2022-12-14T05:44:13.151Z,10.90
2022-12-14T05:46:41.437Z,10.07
2022-12-14T05:49:09.921Z,12.02
2022-12-14T05:51:38.221Z,11.30
2022-12-14T05:54:07.864Z,11.90
2022-12-14T05:56:36.167Z,11.20
2022-12-14T05:59:04.427Z,10.73
2022-12-14T06:01:32.728Z,11.27
2022-12-14T06:04:01.376Z,11.20
2022-12-14T06:06:29.715Z,10.90
2022-12-14T06:08:58.046Z,12.15
2022-12-14T06:11:27.920Z,13.30
2022-12-14T06:13:56.139Z,10.43
2022-12-14T06:16:26.474Z,11.52
2022-12-14T06:18:56.070Z,10.07
2022-12-14T06:21:28.171Z,12.10
2022-12-14T06:23:56.623Z,10.00
2022-12-14T06:26:25.309Z,10.45
2022-12-14T06:28:54.985Z,11.40
2022-12-14T06:31:25.144Z,10.48
2022-12-14T06:33:54.639Z,10.05
2022-12-14T06:36:24.667Z,10.70
2022-12-14T06:38:53.092Z,11.07
2022-12-14T06:41:21.680Z,11.55
2022-12-14T06:43:50.010Z,10.88
2022-12-14T06:46:21.034Z,10.65
2022-12-14T06:48:51.527Z,10.48
2022-12-14T06:51:20.064Z,11.27
2022-12-14T06:53:50.943Z,11.93
2022-12-14T06:56:20.413Z,13.65
2022-12-14T06:58:48.820Z,13.90
2022-12-14T07:01:20.488Z,14.20
2022-12-14T07:03:49.290Z,15.55
2022-12-14T07:06:17.703Z,21.73
2022-12-14T07:08:46.065Z,15.02
2022-12-14T07:11:15.676Z,17.45
2022-12-14T07:13:44.047Z,14.38
2022-12-14T07:16:16.408Z,11.52
2022-12-14T07:18:46.216Z,12.52
2022-12-14T07:21:15.993Z,11.50
2022-12-14T07:23:45.645Z,11.45
2022-12-14T07:26:15.314Z,11.02
2022-12-14T07:28:45.350Z,13.63
2022-12-14T07:31:15.603Z,12.90
2022-12-14T07:33:45.651Z,18.83
2022-12-14T07:36:15.781Z,15.25
2022-12-14T07:38:44.942Z,15.20
2022-12-14T07:41:18.936Z,14.55
2022-12-14T07:43:50.388Z,15.85
2022-12-14T07:46:20.666Z,17.98
2022-12-14T07:48:51.619Z,14.50
2022-12-14T07:51:22.285Z,14.25
2022-12-14T07:53:50.928Z,12.90
2022-12-14T07:56:21.008Z,12.35
2022-12-14T07:58:49.486Z,11.98
2022-12-14T08:01:19.121Z,12.48
2022-12-14T08:03:49.892Z,11.82
2022-12-14T08:06:19.035Z,13.50
2022-12-14T08:08:47.326Z,16.63
2022-12-14T08:11:17.789Z,13.70
2022-12-14T08:13:46.870Z,11.93
2022-12-14T08:16:16.783Z,12.50
2022-12-14T08:18:45.602Z,12.80
2022-12-14T08:21:15.401Z,11.20
2022-12-14T08:23:43.725Z,12.85
2022-12-14T08:26:12.024Z,12.02
2022-12-14T08:28:40.349Z,10.95
2022-12-14T08:31:09.844Z,11.23
2022-12-14T08:33:38.957Z,10.75
2022-12-14T08:36:09.623Z,11.27
2022-12-14T08:38:39.655Z,10.20
2022-12-14T08:41:08.950Z,11.38
2022-12-14T08:43:37.301Z,13.43
2022-12-14T08:46:06.036Z,12.52
2022-12-14T08:48:34.455Z,11.98
2022-12-14T08:51:04.232Z,11.57
2022-12-14T08:53:32.951Z,12.95
2022-12-14T08:56:06.271Z,12.02
2022-12-14T08:58:35.088Z,11.63
2022-12-14T09:01:04.397Z,12.50
2022-12-14T09:03:33.346Z,11.57
2022-12-14T09:06:05.685Z,12.45
2022-12-14T09:08:34.239Z,11.50
2022-12-14T09:11:05.604Z,12.70
2022-12-14T09:13:34.130Z,11.60
2022-12-14T09:16:04.212Z,12.05
2022-12-14T09:18:34.405Z,13.05
2022-12-14T09:21:02.888Z,11.43
2022-12-14T09:23:32.345Z,11.50
2022-12-14T09:26:04.597Z,11.90
2022-12-14T09:28:33.550Z,12.43
2022-12-14T09:31:03.242Z,11.25
2022-12-14T09:33:32.315Z,11.80
2022-12-14T09:36:04.086Z,12.88
2022-12-14T09:38:32.950Z,11.73
2022-12-14T09:41:07.218Z,11.75
2022-12-14T09:43:43.327Z,11.55
2022-12-14T09:46:28.750Z,11.32
2022-12-14T09:48:57.047Z,11.50
2022-12-14T09:51:30.227Z,12.43
2022-12-14T09:54:04.144Z,11.45
2022-12-14T09:56:34.195Z,11.65
2022-12-14T09:59:03.874Z,11.48
2022-12-14T10:02:29.247Z,12.40
2022-12-14T10:04:52.906Z,12.75
2022-12-14T10:07:24.130Z,9.90
2022-12-14T10:09:56.497Z,11.35
2022-12-14T10:12:44.993Z,12.25
2022-12-14T10:15:22.670Z,11.45
2022-12-14T10:18:22.349Z,11.48
2022-12-14T10:21:02.332Z,12.20
2022-12-14T10:23:30.640Z,12.57
2022-12-14T10:26:03.553Z,12.27
2022-12-14T10:28:43.664Z,12.63
2022-12-14T10:31:17.683Z,12.13
2022-12-14T10:33:47.510Z,11.25
2022-12-14T10:36:21.088Z,12.88
2022-12-14T10:38:55.472Z,11.85
2022-12-14T10:41:29.253Z,12.65
2022-12-14T10:44:01.840Z,12.25
2022-12-14T10:46:37.744Z,14.05
2022-12-14T10:49:11.753Z,17.00
2022-12-14T10:51:42.319Z,16.80
2022-12-14T10:54:16.821Z,17.40
2022-12-14T10:56:50.007Z,16.85
2022-12-14T10:59:34.905Z,12.32
2022-12-14T11:02:08.769Z,12.57
2022-12-14T11:04:38.689Z,11.32
2022-12-14T11:07:08.510Z,12.18
2022-12-14T11:09:37.214Z,12.60
2022-12-14T11:12:07.938Z,13.25
2022-12-14T11:14:37.955Z,13.98
2022-12-14T11:17:06.538Z,12.25
2022-12-14T11:19:37.490Z,14.88
2022-12-14T11:22:18.644Z,13.00
2022-12-14T11:24:51.281Z,14.98
2022-12-14T11:27:21.914Z,13.50
2022-12-14T11:29:51.980Z,13.73
2022-12-14T11:32:24.715Z,12.18
2022-12-14T11:34:59.763Z,13.18
2022-12-14T11:37:29.716Z,13.63
2022-12-14T11:39:59.671Z,12.10
2022-12-14T11:42:28.014Z,11.45
2022-12-14T11:45:02.169Z,12.23
2022-12-14T11:47:30.487Z,11.95
2022-12-14T11:49:58.919Z,12.02
2022-12-14T11:52:42.918Z,14.57
2022-12-14T11:55:14.701Z,14.27
2022-12-14T11:57:49.187Z,11.98
2022-12-14T12:00:26.939Z,12.40
2022-12-14T12:03:01.827Z,12.35
2022-12-14T12:05:31.606Z,12.48
2022-12-14T12:08:00.916Z,12.32
2022-12-14T12:10:38.561Z,11.30
2022-12-14T12:13:08.547Z,12.20
2022-12-14T12:15:40.802Z,13.25
2022-12-14T12:18:14.826Z,11.82
2022-12-14T12:20:49.402Z,12.75
2022-12-14T12:23:20.660Z,12.65
2022-12-14T12:25:49.714Z,12.57
2022-12-14T12:28:21.492Z,20.98
2022-12-14T12:30:53.154Z,16.80
2022-12-14T12:33:35.243Z,12.65
2022-12-14T12:36:05.709Z,11.70
2022-12-14T12:38:50.182Z,11.25
2022-12-14T12:41:48.517Z,12.40
2022-12-14T12:44:25.545Z,11.40
2022-12-14T12:49:55.348Z,10.32
2022-12-14T12:52:26.342Z,12.23
2022-12-14T12:54:58.093Z,12.43
2022-12-14T12:57:27.124Z,13.23
2022-12-14T12:59:56.350Z,12.07
2022-12-14T13:02:31.614Z,12.90
2022-12-14T13:05:22.062Z,13.60
2022-12-14T13:07:52.658Z,14.77
2022-12-14T13:10:22.905Z,12.63
2022-12-14T13:12:52.888Z,13.50
2022-12-14T13:15:25.189Z,13.52
2022-12-14T13:17:57.653Z,13.00
2022-12-14T13:20:28.481Z,13.65
2022-12-14T13:22:59.497Z,12.55
2022-12-14T13:25:41.583Z,12.80
2022-12-14T13:28:45.932Z,13.95
2022-12-14T13:31:21.922Z,13.35
2022-12-14T13:34:16.263Z,14.85
2022-12-14T13:37:40.594Z,21.33
2022-12-14T13:40:37.898Z,14.43
2022-12-14T13:43:17.956Z,12.45
2022-12-14T13:45:49.797Z,12.88
2022-12-14T13:48:23.631Z,14.40
2022-12-14T13:51:01.982Z,13.65
2022-12-14T13:53:32.808Z,12.90
2022-12-14T13:56:01.152Z,65.30
2022-12-14T13:58:38.817Z,21.23
2022-12-14T14:01:08.580Z,27.33
2022-12-14T14:03:58.021Z,25.10
2022-12-14T14:06:39.291Z,19.15
2022-12-14T14:09:59.775Z,14.10
2022-12-14T14:12:45.019Z,13.65
2022-12-14T14:16:26.275Z,14.25
2022-12-14T14:18:47.844Z,12.60
2022-12-14T14:21:58.870Z,12.55
2022-12-14T14:24:29.490Z,13.20
2022-12-14T14:27:11.646Z,22.67
2022-12-14T14:29:45.010Z,18.65
2022-12-14T14:32:40.457Z,16.55
2022-12-14T14:35:22.562Z,21.10
2022-12-14T14:37:59.391Z,42.97
2022-12-14T14:41:06.591Z,26.92
2022-12-14T14:43:27.666Z,15.98
2022-12-14T14:45:57.805Z,13.93
2022-12-14T14:48:33.723Z,11.98
2022-12-14T14:51:10.017Z,13.18
2022-12-14T14:53:38.689Z,14.88
2022-12-14T14:56:36.276Z,13.57
2022-12-14T14:59:51.041Z,13.48
2022-12-14T15:02:35.119Z,17.67
2022-12-14T15:05:45.473Z,16.00
2022-12-14T15:07:51.832Z,14.68
2022-12-14T15:10:26.942Z,16.50
2022-12-14T15:12:58.587Z,17.90
2022-12-14T15:15:31.879Z,14.45
2022-12-14T15:18:16.460Z,17.98
2022-12-14T15:20:50.973Z,16.77
2022-12-14T15:23:19.295Z,18.13
2022-12-14T15:25:47.571Z,20.77
2022-12-14T15:28:20.340Z,22.48
2022-12-14T15:30:49.403Z,26.85
2022-12-14T15:33:23.905Z,18.90
2022-12-14T15:35:52.202Z,17.38
2022-12-14T15:38:28.809Z,17.75
2022-12-14T15:40:58.284Z,16.17
2022-12-14T15:43:28.776Z,15.43
2022-12-14T15:46:04.238Z,16.83
2022-12-14T15:48:35.000Z,18.90
2022-12-14T15:51:05.034Z,16.77
2022-12-14T15:53:36.541Z,16.08
2022-12-14T15:56:23.324Z,16.92
2022-12-14T15:58:53.357Z,16.05
2022-12-14T16:01:24.383Z,16.70
2022-12-14T16:03:54.668Z,16.77
2022-12-14T16:06:23.276Z,17.65
2022-12-14T16:08:56.261Z,15.77
2022-12-14T16:11:26.330Z,16.60
2022-12-14T16:13:56.220Z,16.60
2022-12-14T16:16:24.622Z,17.58
2022-12-14T16:18:53.132Z,16.60
2022-12-14T16:21:28.598Z,17.33
2022-12-14T16:23:57.533Z,17.20
2022-12-14T16:26:26.778Z,17.63
2022-12-14T16:29:10.210Z,15.95
2022-12-14T16:31:39.203Z,15.63
2022-12-14T16:34:09.826Z,17.45
2022-12-14T16:36:38.212Z,17.80
2022-12-14T16:39:09.345Z,16.75
2022-12-14T16:41:38.058Z,18.25
2022-12-14T16:44:10.001Z,19.15
2022-12-14T16:46:38.476Z,19.63
2022-12-14T16:49:24.090Z,18.60
2022-12-14T16:52:07.200Z,23.05
2022-12-14T16:54:36.698Z,20.40
2022-12-14T16:57:06.940Z,20.23
2022-12-14T16:59:42.909Z,19.10
2022-12-14T17:02:29.961Z,21.17
2022-12-14T17:04:59.185Z,23.25
2022-12-14T17:07:30.356Z,20.13
2022-12-14T17:09:58.948Z,19.98
2022-12-14T17:12:27.545Z,19.65
2022-12-14T17:14:57.281Z,27.23
2022-12-14T17:17:30.038Z,30.10
2022-12-14T17:19:58.618Z,57.85
2022-12-14T17:22:28.810Z,28.90
2022-12-14T17:24:57.651Z,26.13
2022-12-14T17:27:26.987Z,25.90
2022-12-14T17:29:57.539Z,25.35
2022-12-14T17:32:27.714Z,21.00
2022-12-14T17:34:56.161Z,19.83
2022-12-14T17:37:27.671Z,22.17
2022-12-14T17:40:00.571Z,21.40
2022-12-14T17:42:28.982Z,24.25
2022-12-14T17:44:59.422Z,23.00
2022-12-14T17:47:29.195Z,19.10
2022-12-14T17:49:57.553Z,23.25
2022-12-14T17:52:31.237Z,20.98
2022-12-14T17:55:00.905Z,22.00
2022-12-14T17:57:29.267Z,21.63
2022-12-14T18:00:13.257Z,21.17
2022-12-14T18:02:42.027Z,23.73
2022-12-14T18:05:22.607Z,22.45
2022-12-14T18:07:54.951Z,20.35
2022-12-14T18:10:23.351Z,19.75
2022-12-14T18:12:51.678Z,20.27
2022-12-14T18:15:23.367Z,22.40
2022-12-14T18:17:51.840Z,18.73
2022-12-14T18:20:20.510Z,20.92
2022-12-14T18:22:50.031Z,23.60
2022-12-14T18:25:30.685Z,34.92
2022-12-14T18:27:59.158Z,36.28
2022-12-14T18:30:33.382Z,41.88
2022-12-14T18:33:05.280Z,42.97
2022-12-14T18:35:34.277Z,36.03
2022-12-14T18:38:02.867Z,31.65
2022-12-14T18:40:31.941Z,24.95
2022-12-14T18:43:00.494Z,22.73
2022-12-14T18:45:31.599Z,21.73
2022-12-14T18:48:00.877Z,23.10
2022-12-14T18:50:29.546Z,20.77
2022-12-14T18:52:58.662Z,25.33
2022-12-14T18:55:28.234Z,21.30
2022-12-14T18:57:57.827Z,25.08
2022-12-14T19:00:29.238Z,22.92
2022-12-14T19:03:00.468Z,21.23
2022-12-14T19:05:29.335Z,24.50
2022-12-14T19:07:58.698Z,22.98
2022-12-14T19:10:28.270Z,23.90
2022-12-14T19:12:56.912Z,26.73
2022-12-14T19:15:26.517Z,27.92
2022-12-14T19:17:55.210Z,24.90
2022-12-14T19:20:25.315Z,22.52
2022-12-14T19:22:54.064Z,25.33
2022-12-14T19:25:23.235Z,23.48
2022-12-14T19:30:40.777Z,23.25
2022-12-14T19:33:11.721Z,24.23
2022-12-14T19:35:42.693Z,23.65
2022-12-14T19:38:13.885Z,23.52
2022-12-14T19:40:42.707Z,24.00
2022-12-14T19:43:11.394Z,23.08
2022-12-14T19:45:40.651Z,21.33
2022-12-14T19:48:13.166Z,23.50
2022-12-14T19:50:43.614Z,23.70
2022-12-14T19:53:23.156Z,25.58
2022-12-14T19:55:53.105Z,24.30
2022-12-14T19:58:24.917Z,26.38
2022-12-14T20:00:53.719Z,26.25
2022-12-14T20:03:22.496Z,26.17
2022-12-14T20:05:53.431Z,24.52
2022-12-14T20:08:22.121Z,23.42
2022-12-14T20:10:52.599Z,23.60
2022-12-14T20:13:21.276Z,23.25
2022-12-14T20:15:50.608Z,21.75
2022-12-14T20:18:19.399Z,24.67
2022-12-14T20:20:49.503Z,26.55
2022-12-14T20:23:20.511Z,28.58
2022-12-14T20:25:49.180Z,38.97
2022-12-14T20:28:17.799Z,30.65
2022-12-14T20:30:46.694Z,30.65
2022-12-14T20:33:15.545Z,28.15
2022-12-14T20:35:44.314Z,29.02
2022-12-14T20:38:12.886Z,29.58
2022-12-14T20:40:42.838Z,27.27
2022-12-14T20:43:11.634Z,26.80
2022-12-14T20:45:40.402Z,24.60
2022-12-14T20:48:09.279Z,23.42
2022-12-14T20:50:38.306Z,24.10
2022-12-14T20:53:06.944Z,23.15
2022-12-14T20:55:35.699Z,23.25
2022-12-14T20:58:05.780Z,24.02
2022-12-14T21:00:34.500Z,22.17
2022-12-14T21:03:03.636Z,22.70
2022-12-14T21:05:32.311Z,26.85
2022-12-14T21:08:00.958Z,27.17
2022-12-14T21:10:29.575Z,24.45
2022-12-14T21:13:00.755Z,24.23
2022-12-14T21:15:35.402Z,25.48
2022-12-14T21:18:04.067Z,21.67
2022-12-14T21:20:32.890Z,22.13
2022-12-14T21:23:01.574Z,22.55
2022-12-14T21:25:30.199Z,23.80
2022-12-14T21:27:59.129Z,22.10
2022-12-14T21:30:28.078Z,23.48
2022-12-14T21:32:58.673Z,26.63
2022-12-14T21:35:28.040Z,23.10
2022-12-14T21:37:56.730Z,24.88
2022-12-14T21:40:42.957Z,25.13
2022-12-14T21:43:12.837Z,27.85
2022-12-14T21:45:41.634Z,26.35
2022-12-14T21:48:12.028Z,28.40
2022-12-14T21:50:42.414Z,28.02
2022-12-14T21:53:11.136Z,31.90
2022-12-14T21:55:39.838Z,27.63
2022-12-14T21:58:17.095Z,28.05
2022-12-14T22:00:46.042Z,27.67
2022-12-14T22:03:16.058Z,25.63
2022-12-14T22:05:44.759Z,26.95
2022-12-14T22:08:13.308Z,29.80
2022-12-14T22:10:41.953Z,26.95
2022-12-14T22:13:10.590Z,25.08
2022-12-14T22:15:39.172Z,27.95
2022-12-14T22:18:07.836Z,35.83
2022-12-14T22:20:37.833Z,30.42
2022-12-14T22:23:06.431Z,29.40
2022-12-14T22:25:35.112Z,24.70
2022-12-14T22:28:03.723Z,27.20
2022-12-14T22:30:32.293Z,23.10
2022-12-14T22:33:00.975Z,24.40
2022-12-14T22:35:29.620Z,24.00
2022-12-14T22:37:59.787Z,23.98
2022-12-14T22:40:28.978Z,25.67
2022-12-14T22:42:57.696Z,23.48
2022-12-14T22:45:26.658Z,24.08
2022-12-14T22:47:55.251Z,24.23
2022-12-14T22:50:23.924Z,27.20
2022-12-14T22:52:52.603Z,27.05
2022-12-14T22:55:25.205Z,25.80
2022-12-14T22:57:53.818Z,25.42
2022-12-14T23:00:22.479Z,24.98
2022-12-14T23:02:51.208Z,23.58
2022-12-14T23:05:20.024Z,26.50
2022-12-14T23:07:48.670Z,23.23
2022-12-14T23:10:35.030Z,22.92
2022-12-14T23:13:22.155Z,22.70
2022-12-14T23:16:08.313Z,23.38
2022-12-14T23:18:54.291Z,26.80
2022-12-14T23:21:41.052Z,23.77
2022-12-14T23:24:27.371Z,23.25
2022-12-14T23:27:13.588Z,23.70
2022-12-14T23:30:01.202Z,25.45
2022-12-14T23:32:47.261Z,22.00
2022-12-14T23:35:33.779Z,23.15
2022-12-14T23:38:23.022Z,21.83
2022-12-14T23:41:09.376Z,23.83
2022-12-14T23:43:55.472Z,26.02
2022-12-14T23:46:42.878Z,25.40
2022-12-14T23:49:28.965Z,26.02
2022-12-14T23:52:15.132Z,28.25
2022-12-14T23:55:01.301Z,27.15
2022-12-14T23:57:47.337Z,25.40
